Time;durP1;ratioP1;P1;durP2;ratioP2;P2;SDS_P1;SDS_P2;PMS_P1;PMS_P2;Temp;Humidity;BMP_temperature;BMP_pressure;BME280_temperature;BME280_humidity;BME280_pressure;Samples;Min_cycle;Max_cycle;Signal;HPM_P1;HPM_P2
2022/12/13 00:00:38;;;;;;;9.00;5.40;;;;;;;;;;5008906;28;20456;-73
2022/12/13 00:03:06;;;;;;;7.97;6.20;;;;;;;;;;5009409;28;20517;-74
2022/12/13 00:05:34;;;;;;;15.47;6.40;;;;;;;;;;5008216;28;20976;-74
2022/12/13 00:08:02;;;;;;;13.23;6.30;;;;;;;;;;5011517;28;20572;-74
2022/12/13 00:10:31;;;;;;;10.83;6.43;;;;;;;;;;5016250;28;20535;-74
2022/12/13 00:12:59;;;;;;;10.73;6.30;;;;;;;;;;5015035;28;20878;-74
2022/12/13 00:15:26;;;;;;;9.33;6.13;;;;;;;;;;5013355;28;20506;-75
2022/12/13 00:17:53;;;;;;;19.27;8.27;;;-6.50;99.90;;;;;;5008606;28;20458;-74
2022/12/13 00:20:20;;;;;;;14.13;6.90;;;-6.50;99.90;;;;;;5007936;28;21015;-74
2022/12/13 00:22:47;;;;;;;11.13;6.90;;;-6.60;99.90;;;;;;5008873;28;21228;-73
2022/12/13 00:25:14;;;;;;;11.07;7.50;;;-6.80;99.90;;;;;;5008944;28;20458;-74
2022/12/13 00:27:42;;;;;;;14.90;7.40;;;-6.60;99.90;;;;;;5009387;28;20539;-74
2022/12/13 00:30:09;;;;;;;12.13;7.23;;;-6.50;99.90;;;;;;5009236;28;20455;-74
2022/12/13 00:32:37;;;;;;;17.10;7.90;;;-6.50;99.90;;;;;;5008664;28;20971;-74
2022/12/13 00:35:04;;;;;;;17.73;8.40;;;-6.40;99.90;;;;;;5008543;28;20484;-74
2022/12/13 00:37:31;;;;;;;11.33;8.40;;;-6.40;99.90;;;;;;5007406;28;20945;-74
2022/12/13 00:39:58;;;;;;;14.37;6.80;;;-6.60;99.90;;;;;;5008705;28;20463;-74
2022/12/13 00:42:28;;;;;;;10.90;8.67;;;-6.50;99.90;;;;;;5008730;28;20529;-74
2022/12/13 00:44:56;;;;;;;8.67;7.83;;;-6.30;99.90;;;;;;5008866;28;20455;-74
2022/12/13 00:47:23;;;;;;;12.03;8.00;;;-7.20;99.90;;;;;;5008605;28;20928;-74
2022/12/13 00:49:50;;;;;;;13.70;9.23;;;-7.20;99.90;;;;;;5008413;28;21067;-73
2022/12/13 00:52:17;;;;;;;17.20;10.30;;;-7.30;99.90;;;;;;5008910;28;20456;-73
2022/12/13 00:54:44;;;;;;;13.07;7.57;;;-7.40;99.90;;;;;;5007390;28;20551;-74
2022/12/13 00:57:11;;;;;;;11.33;8.97;;;-7.20;99.90;;;;;;5008566;28;20521;-73
2022/12/13 00:59:43;;;;;;;21.57;8.97;;;-7.10;99.90;;;;;;5009239;28;20530;-73
2022/12/13 01:02:12;;;;;;;13.07;8.20;;;-7.30;99.90;;;;;;5008595;28;20452;-74
2022/12/13 01:04:39;;;;;;;12.97;9.07;;;-7.20;99.90;;;;;;5009093;28;20882;-74
2022/12/13 01:07:07;;;;;;;15.60;7.47;;;-7.10;99.90;;;;;;5009209;28;21098;-73
2022/12/13 01:09:33;;;;;;;10.40;6.67;;;-7.00;99.90;;;;;;5009351;28;20479;-74
2022/12/13 01:12:04;;;;;;;12.17;7.70;;;-7.00;99.90;;;;;;5007593;28;20837;-74
2022/12/13 01:14:31;;;;;;;10.80;6.70;;;-7.00;99.90;;;;;;5008400;28;20482;-74
2022/12/13 01:16:58;;;;;;;7.13;4.50;;;-7.00;99.90;;;;;;5008616;28;20549;-73
2022/12/13 01:19:28;;;;;;;12.90;7.87;;;-6.90;99.90;;;;;;5009248;28;20483;-74
2022/12/13 01:21:56;;;;;;;11.63;6.80;;;-7.00;99.90;;;;;;5010488;28;20542;-74
2022/12/13 01:24:29;;;;;;;9.20;5.90;;;-7.00;99.90;;;;;;5018576;28;20462;-72
2022/12/13 01:26:56;;;;;;;12.13;7.20;;;-7.00;99.90;;;;;;5010504;28;20436;-74
2022/12/13 01:29:24;;;;;;;11.17;7.10;;;-7.10;99.90;;;;;;5011409;28;20505;-74
2022/12/13 01:31:51;;;;;;;9.23;6.00;;;-7.10;99.90;;;;;;5012189;28;20554;-74
2022/12/13 01:34:20;;;;;;;12.53;6.80;;;-7.10;99.90;;;;;;5009786;28;20488;-73
2022/12/13 01:36:48;;;;;;;11.03;5.40;;;-7.10;99.90;;;;;;5008795;28;20487;-74
2022/12/13 01:39:19;;;;;;;13.27;6.60;;;-7.10;99.90;;;;;;5010717;28;20984;-74
2022/12/13 01:41:47;;;;;;;9.33;5.57;;;-7.20;99.90;;;;;;5015381;28;20470;-74
2022/12/13 01:44:52;;;;;;;10.60;7.07;;;-7.20;99.90;;;;;;5015137;28;20518;-74
2022/12/13 01:47:23;;;;;;;8.03;7.03;;;-7.30;99.90;;;;;;5000251;28;20475;-74
2022/12/13 01:49:51;;;;;;;16.23;7.00;;;-7.30;99.90;;;;;;5000404;28;20512;-74
2022/12/13 01:52:20;;;;;;;17.00;7.13;;;-7.30;99.90;;;;;;4999985;28;20491;-74
2022/12/13 01:54:49;;;;;;;12.80;7.17;;;-7.30;99.90;;;;;;4992943;28;20956;-73
2022/12/13 01:57:18;;;;;;;13.87;6.90;;;-7.20;99.90;;;;;;4994233;28;20571;-74
2022/12/13 01:59:47;;;;;;;10.80;7.90;;;-7.10;99.90;;;;;;5001215;28;20550;-74
2022/12/13 02:02:15;;;;;;;14.67;7.20;;;-7.10;99.90;;;;;;5012709;28;20454;-73
2022/12/13 02:04:50;;;;;;;12.30;7.27;;;-7.10;99.90;;;;;;5012670;28;20459;-74
2022/12/13 02:07:22;;;;;;;10.03;6.57;;;-7.20;99.90;;;;;;5012079;28;20461;-74
2022/12/13 02:09:50;;;;;;;12.73;7.67;;;-7.10;99.90;;;;;;5015357;28;20503;-74
2022/12/13 02:12:17;;;;;;;9.50;7.13;;;-7.10;99.90;;;;;;5013331;28;20550;-74
2022/12/13 02:14:43;;;;;;;9.97;4.80;;;-7.20;99.90;;;;;;5019470;28;20537;-74
2022/12/13 02:17:22;;;;;;;10.03;6.30;;;-7.30;99.90;;;;;;5015626;28;20577;-75
2022/12/13 02:20:12;;;;;;;13.50;7.50;;;-7.30;99.90;;;;;;5011467;28;20455;-73
2022/12/13 02:23:00;;;;;;;12.00;7.90;;;-7.30;99.90;;;;;;5011487;28;20952;-74
2022/12/13 02:26:05;;;;;;;12.50;7.30;;;-7.30;99.90;;;;;;5011113;28;20545;-73
2022/12/13 02:28:48;;;;;;;11.60;7.10;;;-7.30;99.90;;;;;;4961495;28;20455;-73
2022/12/13 02:31:19;;;;;;;15.20;7.30;;;-7.40;99.90;;;;;;5010686;28;20470;-74
2022/12/13 02:34:08;;;;;;;12.10;7.40;;;-7.50;99.90;;;;;;5009721;28;21168;-77
2022/12/13 02:36:42;;;;;;;16.77;7.63;;;-7.40;99.90;;;;;;5015402;28;20502;-77
2022/12/13 02:39:12;;;;;;;12.93;7.10;;;-7.40;99.90;;;;;;5010923;28;20492;-72
2022/12/13 02:41:46;;;;;;;15.80;7.10;;;-7.40;99.90;;;;;;5010217;28;20470;-71
2022/12/13 02:44:18;;;;;;;18.07;8.57;;;-7.30;99.90;;;;;;5010431;28;20463;-72
2022/12/13 02:46:53;;;;;;;12.20;7.30;;;-7.20;99.90;;;;;;5010813;28;20460;-71
2022/12/13 02:49:25;;;;;;;12.87;8.17;;;-7.30;99.90;;;;;;5009760;28;20463;-71
2022/12/13 02:51:53;;;;;;;10.60;7.47;;;-7.10;99.90;;;;;;4993204;28;20463;-71
2022/12/13 02:54:21;;;;;;;13.40;8.30;;;-7.00;99.90;;;;;;5010008;28;20487;-71
2022/12/13 02:56:59;;;;;;;12.93;7.60;;;-7.40;99.90;;;;;;5009247;28;20874;-74
2022/12/13 02:59:30;;;;;;;9.80;7.40;;;-7.40;99.90;;;;;;5009591;28;20446;-71
2022/12/13 03:02:06;;;;;;;12.77;7.80;;;-7.30;99.90;;;;;;5009803;28;20450;-72
2022/12/13 03:06:28;;;;;;;18.40;8.87;;;-7.30;99.90;;;;;;5008282;28;20590;-71
2022/12/13 03:07:38;;;;;;;15.37;7.67;;;-7.20;99.90;;;;;;5009600;28;20451;-71
2022/12/13 03:10:11;;;;;;;14.33;7.50;;;-7.20;99.90;;;;;;5009994;28;20499;-71
2022/12/13 03:15:38;;;;;;;13.90;7.23;;;-7.20;99.90;;;;;;5009570;28;20555;-71
2022/12/13 03:18:14;;;;;;;15.53;6.80;;;-7.20;99.90;;;;;;5009448;28;20478;-71
2022/12/13 03:20:47;;;;;;;14.13;7.67;;;-7.20;99.90;;;;;;5009303;28;20879;-71
2022/12/13 03:23:15;;;;;;;10.37;7.97;;;-7.20;99.90;;;;;;5008266;28;20493;-71
2022/12/13 03:25:42;;;;;;;20.23;10.67;;;-7.20;99.90;;;;;;5009168;28;20494;-71
2022/12/13 03:28:11;;;;;;;17.10;8.17;;;-7.20;99.90;;;;;;5009647;28;20459;-71
2022/12/13 03:30:38;;;;;;;13.10;8.20;;;-7.30;99.90;;;;;;5009089;28;20459;-71
2022/12/13 03:33:07;;;;;;;12.93;9.17;;;-7.30;99.90;;;;;;5009462;28;21029;-72
2022/12/13 03:35:34;;;;;;;12.27;7.20;;;-7.40;99.90;;;;;;5009263;28;20487;-72
2022/12/13 03:38:02;;;;;;;13.33;8.00;;;-7.40;99.90;;;;;;5008721;28;20542;-71
2022/12/13 03:40:30;;;;;;;18.77;7.73;;;-7.50;99.90;;;;;;4990345;28;20938;-71
2022/12/13 03:42:58;;;;;;;16.63;7.73;;;-7.50;99.90;;;;;;4989818;28;20466;-72
2022/12/13 03:45:25;;;;;;;14.03;8.20;;;-7.60;99.90;;;;;;4990033;28;20465;-72
2022/12/13 03:47:53;;;;;;;14.07;8.10;;;-7.60;99.90;;;;;;4989250;28;20469;-72
2022/12/13 03:51:09;;;;;;;9.60;7.10;;;-7.60;99.90;;;;;;4989336;28;20483;-73
2022/12/13 03:53:37;;;;;;;17.30;8.70;;;-7.70;99.90;;;;;;4989238;28;20882;-72
2022/12/13 03:56:06;;;;;;;10.07;7.40;;;-7.70;99.90;;;;;;4988587;28;20507;-72
2022/12/13 03:58:34;;;;;;;14.77;7.93;;;-7.70;99.90;;;;;;4989408;28;20492;-72
2022/12/13 04:01:01;;;;;;;17.27;7.77;;;-7.70;99.90;;;;;;4989658;28;21016;-73
2022/12/13 04:03:27;;;;;;;13.90;8.07;;;-7.70;99.90;;;;;;4989504;28;20955;-72
2022/12/13 04:05:54;;;;;;;14.17;8.13;;;-7.70;99.90;;;;;;4987351;28;20529;-72
2022/12/13 04:08:21;;;;;;;11.23;8.60;;;-7.70;99.90;;;;;;4989570;28;20488;-73
2022/12/13 04:10:49;;;;;;;15.70;8.70;;;-7.80;99.90;;;;;;4989506;28;21082;-73
2022/12/13 04:16:02;;;;;;;14.20;10.37;;;-7.80;99.90;;;;;;5009098;28;20954;-73
2022/12/13 04:18:28;;;;;;;11.77;6.27;;;-7.90;99.90;;;;;;5013404;28;20638;-77
2022/12/13 04:20:56;;;;;;;12.17;8.70;;;-7.80;99.90;;;;;;5015956;28;20483;-76
2022/12/13 04:23:30;;;;;;;14.13;6.97;;;-7.80;99.90;;;;;;5016075;28;20844;-73
2022/12/13 04:25:59;;;;;;;14.07;8.70;;;-7.90;99.90;;;;;;5016569;28;20494;-73
2022/12/13 04:28:26;;;;;;;11.67;7.63;;;-7.90;99.90;;;;;;5014264;28;20461;-73
2022/12/13 04:30:53;;;;;;;11.43;6.73;;;-7.90;99.90;;;;;;5015033;28;20545;-73
2022/12/13 04:33:26;;;;;;;16.30;8.67;;;-7.80;99.90;;;;;;5009447;28;21141;-73
2022/12/13 04:35:53;;;;;;;14.00;7.53;;;-7.90;99.90;;;;;;5009906;28;20768;-73
2022/12/13 04:38:20;;;;;;;14.63;8.40;;;-7.90;99.90;;;;;;5010525;28;20581;-75
2022/12/13 04:40:47;;;;;;;10.93;7.17;;;-7.80;99.90;;;;;;5012441;28;21015;-73
2022/12/13 04:43:17;;;;;;;12.93;6.90;;;-7.80;99.90;;;;;;5011378;28;20559;-73
2022/12/13 04:45:43;;;;;;;10.10;7.27;;;-7.80;99.90;;;;;;5007818;28;20477;-74
2022/12/13 04:48:10;;;;;;;12.73;6.90;;;-7.70;99.90;;;;;;5008777;28;20571;-72
2022/12/13 04:50:37;;;;;;;12.33;7.20;;;-7.60;99.90;;;;;;5008885;28;20490;-74
2022/12/13 04:53:04;;;;;;;19.00;6.77;;;-7.60;99.90;;;;;;5009010;28;20548;-73
2022/12/13 04:55:33;;;;;;;11.67;6.87;;;-7.60;99.90;;;;;;5008982;28;20454;-74
2022/12/13 04:58:00;;;;;;;9.70;6.33;;;-7.60;99.90;;;;;;5008819;28;20533;-73
2022/12/13 05:00:28;;;;;;;13.57;6.10;;;-7.70;99.90;;;;;;5009007;28;20953;-73
2022/12/13 05:03:00;;;;;;;13.43;8.10;;;-7.70;99.90;;;;;;5007446;28;20496;-73
2022/12/13 05:05:27;;;;;;;13.20;6.87;;;-7.70;99.90;;;;;;5009106;28;20463;-72
2022/12/13 05:07:55;;;;;;;12.43;7.90;;;-7.80;99.90;;;;;;5008573;28;20455;-73
2022/12/13 05:10:21;;;;;;;9.63;5.50;;;-7.80;99.90;;;;;;5008721;28;20533;-74
2022/12/13 05:12:48;;;;;;;8.60;6.53;;;-7.70;99.90;;;;;;5009024;28;20543;-72
2022/12/13 05:15:15;;;;;;;17.53;6.77;;;-7.80;99.90;;;;;;5008494;28;20929;-71
2022/12/13 05:17:43;;;;;;;9.67;6.80;;;-7.80;99.90;;;;;;5000214;28;20533;-71
2022/12/13 05:22:52;;;;;;;7.10;5.40;;;-7.80;99.90;;;;;;4992366;28;20550;-71
2022/12/13 05:25:19;;;;;;;10.70;6.50;;;-7.80;99.90;;;;;;4992782;28;20448;-71
2022/12/13 05:27:46;;;;;;;9.53;6.67;;;-7.80;99.90;;;;;;4993013;28;20482;-70
2022/12/13 05:30:13;;;;;;;9.63;7.17;;;-7.90;99.90;;;;;;4994847;28;20484;-71
2022/12/13 05:32:46;;;;;;;10.00;7.80;;;-7.80;99.90;;;;;;5005817;28;20505;-71
2022/12/13 05:35:20;;;;;;;10.97;6.10;;;-7.80;99.90;;;;;;5012593;28;20490;-71
2022/12/13 05:37:47;;;;;;;18.97;7.67;;;-7.80;99.90;;;;;;5004470;28;20629;-72
2022/12/13 05:40:14;;;;;;;9.10;5.60;;;-7.80;99.90;;;;;;5005756;28;20498;-73
2022/12/13 05:42:41;;;;;;;12.17;6.80;;;-7.90;99.90;;;;;;5005909;28;20443;-73
2022/12/13 05:45:15;;;;;;;12.50;5.57;;;-7.90;99.90;;;;;;5004921;28;20542;-73
2022/12/13 05:47:42;;;;;;;12.70;6.40;;;-7.80;99.90;;;;;;5001565;28;20550;-73
2022/12/13 05:50:10;;;;;;;15.80;7.27;;;-7.80;99.90;;;;;;5001551;28;20475;-74
2022/12/13 05:52:38;;;;;;;11.50;6.83;;;-7.40;99.90;;;;;;4999725;28;20879;-73
2022/12/13 05:55:08;;;;;;;10.10;5.30;;;-7.80;99.90;;;;;;5001545;28;20991;-75
2022/12/13 05:57:35;;;;;;;14.53;5.70;;;-7.70;99.90;;;;;;5002227;28;20494;-75
2022/12/13 06:00:03;;;;;;;12.07;6.57;;;-7.20;99.90;;;;;;5006818;28;20875;-74
2022/12/13 06:02:30;;;;;;;9.13;6.13;;;-7.70;99.90;;;;;;5002894;28;20542;-72
2022/12/13 06:04:57;;;;;;;7.83;4.97;;;-7.60;99.90;;;;;;5006710;28;20455;-73
2022/12/13 06:07:24;;;;;;;10.60;5.53;;;-7.60;99.90;;;;;;5010552;28;20841;-72
2022/12/13 06:09:57;;;;;;;9.93;5.37;;;-7.60;99.90;;;;;;5007848;28;20470;-73
2022/12/13 06:12:24;;;;;;;8.20;4.30;;;-7.50;99.90;;;;;;5006570;28;20589;-73
2022/12/13 06:14:51;;;;;;;9.77;5.60;;;-7.50;99.90;;;;;;5005119;28;20581;-72
2022/12/13 06:17:18;;;;;;;9.03;5.23;;;-7.50;99.90;;;;;;5005908;28;20513;-73
2022/12/13 06:19:49;;;;;;;7.03;4.93;;;-7.50;99.90;;;;;;4999746;28;20486;-73
2022/12/13 06:22:16;;;;;;;5.40;4.43;;;-7.50;99.90;;;;;;5001886;28;21006;-72
2022/12/13 06:24:44;;;;;;;18.73;5.30;;;-7.60;99.90;;;;;;5000091;28;20449;-74
2022/12/13 06:27:12;;;;;;;9.53;5.77;;;-7.60;99.90;;;;;;5002807;28;20438;-72
2022/12/13 06:29:39;;;;;;;7.07;4.93;;;-7.10;99.90;;;;;;5002350;28;20467;-71
2022/12/13 06:32:06;;;;;;;9.30;5.80;;;-7.60;99.90;;;;;;4997902;28;20443;-72
2022/12/13 06:34:35;;;;;;;7.10;4.50;;;-7.60;99.90;;;;;;4999486;28;20531;-73
2022/12/13 06:37:03;;;;;;;9.27;4.50;;;-7.60;99.90;;;;;;4999454;28;21027;-73
2022/12/13 06:39:30;;;;;;;6.77;4.33;;;-7.70;99.90;;;;;;5007068;28;20529;-72
2022/12/13 06:41:57;;;;;;;17.30;6.70;;;-7.80;99.90;;;;;;5008888;28;20457;-73
2022/12/13 06:44:25;;;;;;;10.10;6.53;;;-7.80;99.90;;;;;;5009676;28;20451;-73
2022/12/13 06:46:52;;;;;;;10.30;7.17;;;-7.10;99.90;;;;;;5009096;28;20487;-73
2022/12/13 06:49:24;;;;;;;11.13;6.60;;;-7.90;99.90;;;;;;5009874;28;20450;-73
2022/12/13 06:51:51;;;;;;;9.83;6.37;;;-7.90;99.90;;;;;;5009379;28;20876;-73
2022/12/13 06:54:18;;;;;;;11.50;5.90;;;-7.90;99.90;;;;;;5009660;28;20550;-72
2022/12/13 06:56:44;;;;;;;8.97;5.73;;;-7.90;99.90;;;;;;5008290;28;20962;-72
2022/12/13 06:59:18;;;;;;;8.53;5.70;;;-7.80;99.90;;;;;;5008846;28;21007;-71
2022/12/13 07:02:01;;;;;;;7.60;4.43;;;-7.70;99.90;;;;;;5009228;28;20489;-72
2022/12/13 07:04:42;;;;;;;9.70;5.47;;;-7.70;99.90;;;;;;4989523;28;20551;-72
2022/12/13 07:07:09;;;;;;;10.40;6.30;;;-7.80;99.90;;;;;;4989923;28;20459;-72
2022/12/13 07:09:37;;;;;;;16.40;6.17;;;-7.80;99.90;;;;;;4990054;28;20562;-72
2022/12/13 07:12:04;;;;;;;10.17;5.80;;;-7.30;99.90;;;;;;5007614;28;20494;-72
2022/12/13 07:14:31;;;;;;;13.37;6.33;;;-7.80;99.90;;;;;;5010224;28;20664;-74
2022/12/13 07:17:00;;;;;;;17.30;5.63;;;-7.80;99.90;;;;;;5009957;28;20447;-72
2022/12/13 07:19:27;;;;;;;22.53;6.83;;;-7.70;99.90;;;;;;5009680;28;20499;-72
2022/12/13 07:21:53;;;;;;;10.60;6.20;;;-7.10;99.90;;;;;;5013844;28;20489;-71
2022/12/13 07:24:21;;;;;;;13.77;7.10;;;-7.60;99.90;;;;;;5009375;28;20546;-72
2022/12/13 07:26:48;;;;;;;11.03;6.63;;;-7.60;99.90;;;;;;5007964;28;20474;-71
2022/12/13 07:29:15;;;;;;;6.90;4.60;;;-7.60;99.90;;;;;;5010750;28;20448;-71
2022/12/13 07:31:42;;;;;;;13.23;7.10;;;-7.60;99.90;;;;;;5009124;28;20532;-71
2022/12/13 07:34:10;;;;;;;10.20;5.80;;;-7.70;99.90;;;;;;5009304;28;20449;-71
2022/12/13 07:36:37;;;;;;;12.13;6.17;;;-7.70;99.90;;;;;;5008604;28;20490;-72
2022/12/13 07:39:04;;;;;;;9.93;6.50;;;-7.70;99.90;;;;;;5008462;28;20491;-72
2022/12/13 07:41:31;;;;;;;10.23;5.87;;;-7.70;99.90;;;;;;5008294;28;20537;-72
2022/12/13 07:43:58;;;;;;;10.53;5.80;;;-7.70;99.90;;;;;;5007145;28;20553;-72
2022/12/13 07:46:25;;;;;;;14.17;6.30;;;-7.70;99.90;;;;;;5008523;28;20545;-72
2022/12/13 07:48:52;;;;;;;9.27;6.63;;;-7.70;99.90;;;;;;5008600;28;20618;-72
2022/12/13 07:51:20;;;;;;;12.03;7.40;;;-7.70;99.90;;;;;;5008493;28;20546;-72
2022/12/13 07:53:47;;;;;;;10.30;6.80;;;-7.70;99.90;;;;;;5008826;28;20541;-72
2022/12/13 07:56:14;;;;;;;13.63;8.07;;;-7.70;99.90;;;;;;5008009;28;20458;-72
2022/12/13 07:58:43;;;;;;;11.90;6.03;;;-7.80;99.90;;;;;;5008232;28;20496;-72
2022/12/13 08:01:11;;;;;;;10.87;6.90;;;-7.80;99.90;;;;;;5007341;28;20467;-72
2022/12/13 08:03:38;;;;;;;10.40;7.30;;;-7.70;99.90;;;;;;5010260;28;20897;-72
2022/12/13 08:06:07;;;;;;;9.90;6.37;;;-7.70;99.90;;;;;;5009966;28;20966;-72
2022/12/13 08:08:36;;;;;;;13.97;7.90;;;-7.70;99.90;;;;;;5008411;28;20477;-72
2022/12/13 08:11:05;;;;;;;10.27;5.50;;;-7.70;99.90;;;;;;5008617;28;20500;-73
2022/12/13 08:13:32;;;;;;;12.63;6.90;;;-7.70;99.90;;;;;;5008832;28;20462;-71
2022/12/13 08:16:00;;;;;;;11.80;7.57;;;-7.70;99.90;;;;;;5007962;28;20703;-72
2022/12/13 08:18:27;;;;;;;11.80;7.90;;;-7.70;99.90;;;;;;5009358;28;20850;-72
2022/12/13 08:20:59;;;;;;;12.23;6.83;;;-7.60;99.90;;;;;;5008866;28;20516;-72
2022/12/13 08:23:26;;;;;;;16.03;6.63;;;-7.70;99.90;;;;;;5008535;28;20809;-72
2022/12/13 08:25:55;;;;;;;17.83;8.30;;;-7.60;99.90;;;;;;5007883;28;20911;-72
2022/12/13 08:28:22;;;;;;;12.83;8.23;;;-7.60;99.90;;;;;;5007896;28;20538;-73
2022/12/13 08:30:50;;;;;;;14.50;7.70;;;-7.70;99.90;;;;;;5007586;28;20455;-72
2022/12/13 08:33:17;;;;;;;10.00;7.20;;;-7.50;99.90;;;;;;5006461;28;20462;-72
2022/12/13 08:35:44;;;;;;;14.07;7.70;;;-7.50;99.90;;;;;;5007659;28;20601;-72
2022/12/13 08:38:11;;;;;;;15.00;8.30;;;-7.50;99.90;;;;;;5007239;28;20486;-72
2022/12/13 08:40:38;;;;;;;14.37;7.97;;;-7.30;99.90;;;;;;5009169;28;20506;-73
2022/12/13 08:43:06;;;;;;;13.50;7.90;;;-7.30;99.90;;;;;;5007959;28;20485;-76
2022/12/13 08:45:33;;;;;;;13.20;8.47;;;-7.30;99.90;;;;;;5007653;28;20538;-76
2022/12/13 08:48:02;;;;;;;15.57;7.90;;;-7.20;99.90;;;;;;5007999;28;20487;-76
2022/12/13 08:50:40;;;;;;;17.20;8.37;;;-7.20;99.90;;;;;;5006653;28;20455;-74
2022/12/13 08:53:11;;;;;;;16.07;9.30;;;-7.00;99.90;;;;;;4991848;28;21201;-74
2022/12/13 08:55:38;;;;;;;15.37;7.43;;;-7.00;99.90;;;;;;5012267;28;20446;-77
2022/12/13 08:58:07;;;;;;;14.27;8.20;;;-6.90;99.90;;;;;;5013887;28;20576;-76
2022/12/13 09:00:35;;;;;;;13.30;6.17;;;-6.80;99.90;;;;;;5013104;28;20529;-76
2022/12/13 09:03:10;;;;;;;8.80;5.97;;;-6.70;99.90;;;;;;5014591;28;20455;-76
2022/12/13 09:05:39;;;;;;;11.37;7.07;;;-6.70;99.90;;;;;;5013585;28;20456;-75
2022/12/13 09:08:06;;;;;;;13.10;8.40;;;-6.60;99.90;;;;;;5016041;28;20931;-75
2022/12/13 09:10:33;;;;;;;11.77;7.80;;;-6.50;99.90;;;;;;5016691;28;20925;-76
2022/12/13 09:13:01;;;;;;;10.07;7.07;;;-6.40;99.90;;;;;;5015088;28;20568;-77
2022/12/13 09:15:35;;;;;;;10.80;7.57;;;-6.40;99.90;;;;;;5015347;28;20963;-76
2022/12/13 09:18:04;;;;;;;11.63;5.67;;;-6.20;99.90;;;;;;5014548;28;20454;-76
2022/12/13 09:20:39;;;;;;;11.37;6.10;;;-6.30;99.90;;;;;;5016171;28;20471;-75
2022/12/13 09:23:06;;;;;;;14.20;6.80;;;-6.30;99.90;;;;;;5012885;28;20486;-75
2022/12/13 09:25:33;;;;;;;12.00;7.50;;;-6.30;99.90;;;;;;5012189;28;20538;-76
2022/12/13 09:28:01;;;;;;;11.80;6.90;;;-6.30;99.90;;;;;;5012477;28;20454;-76
2022/12/13 09:30:29;;;;;;;14.33;5.73;;;-6.20;99.90;;;;;;5012753;28;20450;-76
2022/12/13 09:32:56;;;;;;;8.67;5.80;;;-6.10;99.90;;;;;;5013023;28;20496;-75
2022/12/13 09:35:23;;;;;;;12.63;7.63;;;-6.00;99.90;;;;;;5013320;28;20471;-75
2022/12/13 09:37:50;;;;;;;18.17;7.57;;;-5.90;99.90;;;;;;5012632;28;20447;-75
2022/12/13 09:40:22;;;;;;;17.03;5.90;;;-6.00;99.90;;;;;;5014622;28;21001;-75
2022/12/13 09:42:52;;;;;;;14.23;7.07;;;-6.00;99.90;;;;;;5015658;28;20451;-75
2022/12/13 09:45:20;;;;;;;15.33;6.87;;;-6.00;99.90;;;;;;5014174;28;20446;-75
2022/12/13 09:47:49;;;;;;;10.20;6.20;;;-6.10;99.90;;;;;;5013948;28;20932;-75
2022/12/13 09:50:27;;;;;;;12.30;6.87;;;-6.10;99.90;;;;;;5011810;28;20487;-76
2022/12/13 09:52:55;;;;;;;10.73;6.30;;;-6.20;99.90;;;;;;5012443;28;20524;-75
2022/12/13 09:55:23;;;;;;;11.50;6.20;;;-6.10;99.90;;;;;;5011805;28;20463;-75
2022/12/13 09:57:51;;;;;;;8.77;6.87;;;-6.00;99.90;;;;;;5010545;28;20506;-76
2022/12/13 10:00:20;;;;;;;13.27;6.93;;;-5.90;99.90;;;;;;5011076;28;20908;-75
2022/12/13 10:03:03;;;;;;;9.63;6.77;;;-5.90;99.90;;;;;;5010687;28;20451;-75
2022/12/13 10:05:37;;;;;;;10.30;7.03;;;-5.90;99.90;;;;;;5011648;28;20464;-75
2022/12/13 10:08:07;;;;;;;12.93;7.00;;;-5.40;99.90;;;;;;5011243;28;20451;-76
2022/12/13 10:10:34;;;;;;;13.30;6.57;;;-6.10;99.90;;;;;;5010895;28;20475;-76
2022/12/13 10:13:18;;;;;;;14.17;8.23;;;-6.00;99.90;;;;;;5010874;28;21060;-76
2022/12/13 10:15:50;;;;;;;16.03;7.90;;;-6.00;99.90;;;;;;5010387;28;20464;-76
2022/12/13 10:18:26;;;;;;;13.27;7.70;;;-5.80;99.90;;;;;;5010440;28;20955;-76
2022/12/13 10:20:55;;;;;;;17.10;7.47;;;-5.80;99.90;;;;;;5010420;28;20541;-75
2022/12/13 10:23:21;;;;;;;11.10;8.30;;;-5.70;99.90;;;;;;5011185;28;20465;-75
2022/12/13 10:25:53;;;;;;;10.93;7.27;;;-5.60;99.90;;;;;;5011537;28;20946;-75
2022/12/13 10:28:26;;;;;;;19.50;8.47;;;-5.40;99.90;;;;;;5015291;28;20539;-75
2022/12/13 10:30:54;;;;;;;12.90;7.67;;;-5.40;99.90;;;;;;5009271;28;20558;-75
2022/12/13 10:33:25;;;;;;;17.10;9.73;;;-5.40;99.90;;;;;;5010795;28;20971;-75
2022/12/13 10:36:14;;;;;;;16.43;8.20;;;-5.30;99.90;;;;;;5010368;28;20611;-75
2022/12/13 10:38:44;;;;;;;14.33;8.60;;;-5.20;99.90;;;;;;5010428;28;20541;-76
2022/12/13 10:41:33;;;;;;;12.33;8.70;;;-5.00;99.90;;;;;;5010621;28;20534;-76
2022/12/13 10:44:09;;;;;;;13.60;8.90;;;-5.00;99.90;;;;;;5010283;28;20456;-75
2022/12/13 10:46:36;;;;;;;18.10;8.57;;;-4.30;99.90;;;;;;5011118;28;20454;-76
2022/12/13 10:49:16;;;;;;;15.87;9.77;;;-4.80;99.90;;;;;;5010281;28;20454;-75
2022/12/13 10:51:44;;;;;;;14.77;7.60;;;-5.00;99.90;;;;;;5011003;28;20457;-75
2022/12/13 10:54:24;;;;;;;15.63;8.87;;;-4.90;99.90;;;;;;5009923;28;20463;-75
2022/12/13 10:56:58;;;;;;;15.13;8.63;;;-4.80;99.90;;;;;;5010265;28;20470;-76
2022/12/13 10:59:30;;;;;;;13.07;8.83;;;-4.80;99.90;;;;;;5011584;28;20486;-76
2022/12/13 11:01:58;;;;;;;13.57;9.20;;;-4.60;99.90;;;;;;5013870;28;20968;-77
2022/12/13 11:04:30;;;;;;;11.00;8.50;;;-4.50;99.90;;;;;;5011669;28;20470;-76
2022/12/13 11:06:59;;;;;;;13.83;8.90;;;-4.50;99.90;;;;;;5012489;28;20451;-81
2022/12/13 11:09:31;;;;;;;13.90;8.67;;;-4.40;99.90;;;;;;5011928;28;20562;-75
2022/12/13 11:12:01;;;;;;;15.20;8.57;;;-4.10;99.90;;;;;;5009699;28;20492;-75
2022/12/13 11:14:32;;;;;;;16.10;8.30;;;-4.20;99.90;;;;;;5011189;28;20463;-76
2022/12/13 11:17:05;;;;;;;12.63;8.33;;;-4.00;99.90;;;;;;5010962;28;20466;-76
2022/12/13 11:19:38;;;;;;;21.27;9.90;;;-4.20;99.90;;;;;;5008997;28;20577;-75
2022/12/13 11:22:07;;;;;;;23.50;9.63;;;-4.20;99.90;;;;;;5009667;28;20943;-76
2022/12/13 11:24:36;;;;;;;15.93;8.13;;;-4.30;99.90;;;;;;5008795;28;20497;-76
2022/12/13 11:27:20;;;;;;;14.83;9.50;;;-4.30;99.90;;;;;;5009741;28;20512;-75
2022/12/13 11:29:59;;;;;;;18.80;8.43;;;-4.20;99.90;;;;;;5009398;28;20808;-75
2022/12/13 11:32:40;;;;;;;18.20;8.63;;;-3.80;99.90;;;;;;5009087;28;20568;-75
2022/12/13 11:35:16;;;;;;;17.80;11.77;;;-2.60;99.90;;;;;;5009484;28;20537;-77
2022/12/13 11:37:50;;;;;;;18.87;9.20;;;-2.00;99.90;;;;;;4991783;28;20457;-77
2022/12/13 11:40:20;;;;;;;20.93;10.67;;;-1.60;99.90;;;;;;4992213;28;20497;-75
2022/12/13 11:42:52;;;;;;;16.17;9.27;;;-2.10;99.90;;;;;;4994625;28;20491;-75
2022/12/13 11:45:21;;;;;;;13.13;8.90;;;-1.70;99.90;;;;;;4994555;28;20607;-75
2022/12/13 11:47:55;;;;;;;14.23;9.13;;;-2.10;99.90;;;;;;4995096;28;20527;-74
2022/12/13 11:50:29;;;;;;;21.07;11.93;;;-2.20;99.90;;;;;;4996659;28;20531;-75
2022/12/13 11:52:59;;;;;;;18.50;9.40;;;-2.60;99.90;;;;;;4992002;28;20892;-75
2022/12/13 11:55:36;;;;;;;18.80;11.57;;;-2.10;99.90;;;;;;5012389;28;20559;-74
2022/12/13 11:58:11;;;;;;;15.93;8.47;;;-2.40;99.90;;;;;;5011200;28;20542;-75
2022/12/13 12:00:45;;;;;;;14.83;9.83;;;-2.40;99.90;;;;;;5009685;28;20495;-74
2022/12/13 12:03:18;;;;;;;16.60;8.53;;;-1.30;99.90;;;;;;5010399;28;20959;-74
2022/12/13 12:05:51;;;;;;;16.03;9.30;;;-1.80;99.90;;;;;;5010775;28;20459;-75
2022/12/13 12:08:25;;;;;;;10.20;7.97;;;-2.10;99.90;;;;;;5008191;28;20517;-74
2022/12/13 12:11:02;;;;;;;13.90;9.50;;;-0.50;99.90;;;;;;5012062;28;20470;-75
2022/12/13 12:13:32;;;;;;;15.30;9.07;;;-2.20;99.90;;;;;;5014018;28;20788;-75
2022/12/13 12:16:08;;;;;;;22.00;10.47;;;-2.60;99.90;;;;;;5009583;28;20451;-74
2022/12/13 12:18:35;;;;;;;16.63;10.17;;;-2.20;99.90;;;;;;5008633;28;20584;-75
2022/12/13 12:21:27;;;;;;;17.57;9.43;;;-1.60;99.90;;;;;;5012830;28;20506;-74
2022/12/13 12:24:06;;;;;;;17.43;9.47;;;-1.20;99.90;;;;;;5008610;28;20491;-75
2022/12/13 12:26:46;;;;;;;22.90;10.40;;;-2.40;99.90;;;;;;5006686;28;21234;-74
2022/12/13 12:29:36;;;;;;;19.00;11.67;;;-3.60;99.90;;;;;;5007724;28;20906;-74
2022/12/13 12:32:10;;;;;;;17.80;9.90;;;-1.30;99.90;;;;;;5008621;28;20455;-75
2022/12/13 12:34:42;;;;;;;14.43;8.90;;;-2.50;99.90;;;;;;5005641;28;20561;-74
2022/12/13 12:37:24;;;;;;;22.60;9.17;;;-1.90;99.90;;;;;;5006600;28;20450;-72
2022/12/13 12:40:03;;;;;;;13.90;9.33;;;-1.20;99.90;;;;;;5005815;28;20515;-74
2022/12/13 12:42:46;;;;;;;15.47;10.40;;;-1.90;99.90;;;;;;5007592;28;20501;-67
2022/12/13 12:45:32;;;;;;;20.37;10.07;;;-1.80;99.90;;;;;;5005611;28;20468;-73
2022/12/13 12:48:15;;;;;;;25.53;17.00;;;-1.50;99.90;;;;;;5003018;28;20510;-74
2022/12/13 12:50:49;;;;;;;17.97;11.13;;;-1.60;99.90;;;;;;5003800;28;20459;-73
2022/12/13 12:53:35;;;;;;;16.47;10.33;;;-1.90;99.90;;;;;;4998690;28;20463;-74
2022/12/13 12:56:17;;;;;;;20.07;11.13;;;-1.80;99.90;;;;;;4998693;28;20818;-73
2022/12/13 12:58:50;;;;;;;16.50;10.40;;;-1.50;99.90;;;;;;4998184;28;20436;-74
2022/12/13 13:01:31;;;;;;;16.23;9.67;;;-2.00;99.90;;;;;;4997951;28;20495;-73
2022/12/13 13:04:03;;;;;;;17.73;10.30;;;-2.20;99.90;;;;;;4997958;28;20448;-75
2022/12/13 13:06:35;;;;;;;17.40;10.67;;;-1.80;99.90;;;;;;4998479;28;20439;-76